createdAt,value
2023-07-14T00:00:56.927Z,2.03
2023-07-14T00:05:58.373Z,1.73
2023-07-14T00:11:00.490Z,1.95
2023-07-14T00:16:02.021Z,2.45
2023-07-14T00:21:03.565Z,1.75
2023-07-14T00:26:08.410Z,1.88
2023-07-14T00:31:15.519Z,2.97
2023-07-14T00:36:18.477Z,1.95
2023-07-14T00:41:24.561Z,1.80
2023-07-14T00:46:29.041Z,1.95
2023-07-14T00:51:32.779Z,1.85
2023-07-14T00:56:41.480Z,2.10
2023-07-14T01:02:20.456Z,1.60
2023-07-14T01:07:28.693Z,2.17
2023-07-14T01:12:35.443Z,1.67
2023-07-14T01:17:37.959Z,1.63
2023-07-14T01:22:54.590Z,1.63
2023-07-14T01:27:56.339Z,1.85
2023-07-14T01:32:57.928Z,1.65
2023-07-14T01:37:59.581Z,1.85
2023-07-14T01:43:04.783Z,1.88
2023-07-14T01:48:11.862Z,1.88
2023-07-14T01:53:32.715Z,1.90
2023-07-14T01:58:38.236Z,2.10
2023-07-14T02:03:44.871Z,2.03
2023-07-14T02:08:47.208Z,1.90
2023-07-14T02:13:51.417Z,1.85
2023-07-14T02:18:54.162Z,2.00
2023-07-14T02:23:56.654Z,1.85
2023-07-14T02:28:59.247Z,2.00
2023-07-14T02:34:00.783Z,1.90
2023-07-14T02:39:03.563Z,2.20
2023-07-14T02:44:08.459Z,2.10
2023-07-14T02:49:10.538Z,1.88
2023-07-14T02:54:12.121Z,1.80
2023-07-14T02:59:14.853Z,2.17
2023-07-14T03:04:16.541Z,2.08
2023-07-14T03:09:18.288Z,2.00
2023-07-14T03:14:19.828Z,2.05
2023-07-14T03:19:21.365Z,2.23
2023-07-14T03:24:22.986Z,2.13
2023-07-14T03:29:25.455Z,2.67
2023-07-14T03:34:26.913Z,2.20
2023-07-14T03:39:31.483Z,2.40
2023-07-14T03:44:33.622Z,2.90
2023-07-14T03:49:35.824Z,2.20
2023-07-14T03:54:37.280Z,2.13
2023-07-14T03:59:38.828Z,2.57
2023-07-14T04:04:41.454Z,2.05
2023-07-14T04:09:42.942Z,2.00
2023-07-14T04:14:44.875Z,2.10
2023-07-14T04:19:46.319Z,1.98
2023-07-14T04:24:47.946Z,2.00
2023-07-14T04:29:49.575Z,2.43
2023-07-14T04:34:51.193Z,2.65
2023-07-14T04:39:52.743Z,2.13
2023-07-14T04:44:54.194Z,2.37
2023-07-14T04:49:55.650Z,2.20
2023-07-14T04:54:57.096Z,2.50
2023-07-14T04:59:59.736Z,1.93
2023-07-14T05:05:21.525Z,2.35
2023-07-14T05:10:25.206Z,2.35
2023-07-14T05:15:27.694Z,2.13
2023-07-14T05:20:30.200Z,2.28
2023-07-14T05:25:31.940Z,2.05
2023-07-14T05:30:34.345Z,2.75
2023-07-14T05:35:35.834Z,2.30
2023-07-14T05:40:51.143Z,2.30
2023-07-14T05:45:57.618Z,2.10
2023-07-14T05:50:59.510Z,2.00
2023-07-14T05:56:01.066Z,1.80
2023-07-14T06:01:03.210Z,2.42
2023-07-14T06:16:08.644Z,2.60
2023-07-14T06:21:12.070Z,2.20
2023-07-14T06:26:13.795Z,2.30
2023-07-14T06:36:17.066Z,2.10
2023-07-14T06:41:18.834Z,2.40
2023-07-14T06:46:20.369Z,2.45
2023-07-14T06:51:21.928Z,2.03
2023-07-14T06:56:24.339Z,2.22
2023-07-14T07:01:26.235Z,2.10
2023-07-14T07:11:29.143Z,2.13
2023-07-14T07:16:31.009Z,1.73
2023-07-14T07:26:34.110Z,2.27
2023-07-14T07:31:35.824Z,2.13
2023-07-14T07:36:37.430Z,1.88
2023-07-14T07:41:41.639Z,2.00
2023-07-14T07:46:44.272Z,2.10
2023-07-14T07:51:45.887Z,2.30
2023-07-14T07:56:47.378Z,2.00
2023-07-14T08:01:48.951Z,2.08
2023-07-14T08:06:50.628Z,2.20
2023-07-14T08:11:57.508Z,2.80
2023-07-14T08:16:59.544Z,1.90
2023-07-14T08:22:01.288Z,2.10
2023-07-14T08:27:02.764Z,2.15
2023-07-14T08:32:04.666Z,1.95
2023-07-14T08:37:06.225Z,2.20
2023-07-14T08:42:52.690Z,2.03
2023-07-14T08:48:32.752Z,2.30
2023-07-14T08:53:35.351Z,2.53
2023-07-14T08:58:41.927Z,1.98
2023-07-14T09:03:47.216Z,2.22
2023-07-14T09:08:49.070Z,2.08
2023-07-14T09:14:05.942Z,2.30
2023-07-14T09:19:25.168Z,2.20
2023-07-14T09:24:46.117Z,2.30
2023-07-14T09:29:48.001Z,2.30
2023-07-14T09:34:58.378Z,2.20
2023-07-14T09:40:16.142Z,1.90
2023-07-14T09:45:21.796Z,2.08
2023-07-14T09:50:24.991Z,1.63
2023-07-14T09:55:26.510Z,2.22
2023-07-14T10:06:04.049Z,1.67
2023-07-14T10:11:20.281Z,2.00
2023-07-14T10:16:22.364Z,2.17
2023-07-14T10:21:27.275Z,1.70
2023-07-14T10:26:31.481Z,1.77
2023-07-14T10:31:41.662Z,1.70
2023-07-14T10:36:44.423Z,2.95
2023-07-14T10:41:48.743Z,1.70
2023-07-14T10:46:57.113Z,1.77
2023-07-14T10:52:15.925Z,1.92
2023-07-14T10:57:29.827Z,1.73
2023-07-14T11:02:42.535Z,2.00
2023-07-14T11:07:44.150Z,1.73
2023-07-14T11:18:33.246Z,2.13
2023-07-14T11:23:52.850Z,2.10
2023-07-14T11:29:12.358Z,2.10
2023-07-14T11:34:25.049Z,2.17
2023-07-14T11:39:57.699Z,1.98
2023-07-14T11:45:01.897Z,1.77
2023-07-14T11:50:38.139Z,2.50
2023-07-14T11:55:42.336Z,1.73
2023-07-14T12:00:53.296Z,1.77
2023-07-14T12:06:19.993Z,1.92
2023-07-14T12:11:40.591Z,1.70
2023-07-14T12:16:47.858Z,1.98
2023-07-14T12:22:36.043Z,1.88
2023-07-14T12:27:42.502Z,1.98
2023-07-14T12:32:44.031Z,1.55
2023-07-14T12:37:46.899Z,2.03
2023-07-14T12:42:51.298Z,2.13
2023-07-14T12:47:53.507Z,1.95
2023-07-14T12:52:55.309Z,2.20
2023-07-14T12:57:57.611Z,2.05
2023-07-14T13:02:59.705Z,1.90
2023-07-14T13:08:04.113Z,2.00
2023-07-14T13:13:09.465Z,1.92
2023-07-14T13:18:31.652Z,2.03
2023-07-14T13:23:35.209Z,1.92
2023-07-14T13:28:54.530Z,2.40
2023-07-14T13:34:00.691Z,2.00
2023-07-14T13:39:07.498Z,2.20
2023-07-14T13:44:28.819Z,2.35
2023-07-14T13:49:30.436Z,1.88
2023-07-14T13:54:40.547Z,1.90
2023-07-14T13:59:44.801Z,2.47
2023-07-14T14:04:46.267Z,2.00
2023-07-14T14:09:47.818Z,1.90
2023-07-14T14:14:49.565Z,1.83
2023-07-14T14:19:52.312Z,2.00
2023-07-14T14:24:53.803Z,2.20
2023-07-14T14:29:55.308Z,2.28
2023-07-14T14:34:58.113Z,2.13
2023-07-14T14:40:00.760Z,2.00
2023-07-14T14:45:02.354Z,2.20
2023-07-14T14:50:04.042Z,1.90
2023-07-14T14:55:05.708Z,2.15
2023-07-14T15:00:18.091Z,2.20
2023-07-14T15:05:22.194Z,2.00
2023-07-14T15:10:27.803Z,2.28
2023-07-14T15:15:36.965Z,2.20
2023-07-14T15:20:38.592Z,2.35
2023-07-14T15:25:44.239Z,2.45
2023-07-14T15:30:46.550Z,2.00
2023-07-14T15:35:57.915Z,2.28
2023-07-14T15:40:59.951Z,2.13
2023-07-14T15:46:02.850Z,2.72
2023-07-14T15:51:12.471Z,2.67
2023-07-14T15:56:19.854Z,2.88
2023-07-14T16:01:30.845Z,2.33
2023-07-14T16:06:38.062Z,2.40
2023-07-14T16:11:40.487Z,2.40
2023-07-14T16:16:42.617Z,2.70
2023-07-14T16:21:47.674Z,2.35
2023-07-14T16:26:53.784Z,2.83
2023-07-14T16:31:56.191Z,2.72
2023-07-14T16:36:57.743Z,3.53
2023-07-14T16:41:59.195Z,3.17
2023-07-14T16:47:02.371Z,2.78
2023-07-14T16:52:05.970Z,2.40
2023-07-14T16:57:26.285Z,3.00
2023-07-14T17:02:27.945Z,2.75
2023-07-14T17:07:29.608Z,2.83
2023-07-14T17:12:31.163Z,2.92
2023-07-14T17:17:34.655Z,2.70
2023-07-14T17:22:37.424Z,3.67
2023-07-14T17:27:39.353Z,3.30
2023-07-14T17:32:41.376Z,3.05
2023-07-14T17:37:43.110Z,3.30
2023-07-14T17:42:44.571Z,3.38
2023-07-14T17:47:46.725Z,3.10
2023-07-14T17:52:51.233Z,2.97
2023-07-14T17:58:00.467Z,3.15
2023-07-14T18:03:04.513Z,3.25
2023-07-14T18:08:11.700Z,3.22
2023-07-14T18:13:20.307Z,3.25
2023-07-14T18:18:24.949Z,3.00
2023-07-14T18:23:32.749Z,3.90
2023-07-14T18:28:34.278Z,3.15
2023-07-14T18:33:36.591Z,3.40
2023-07-14T18:38:38.074Z,3.38
2023-07-14T18:43:39.745Z,2.75
2023-07-14T18:48:41.373Z,3.30
2023-07-14T18:53:44.447Z,3.20
2023-07-14T18:58:46.219Z,3.17
2023-07-14T19:03:50.407Z,3.28
2023-07-14T19:08:54.412Z,3.28
2023-07-14T19:13:59.257Z,3.40
2023-07-14T19:19:01.038Z,3.80
2023-07-14T19:24:10.107Z,4.00
2023-07-14T19:29:23.868Z,3.45
2023-07-14T19:34:33.637Z,4.68
2023-07-14T19:39:35.126Z,3.70
2023-07-14T19:49:38.001Z,3.90
2023-07-14T19:59:42.576Z,3.40
2023-07-14T20:04:44.050Z,3.80
2023-07-14T20:09:45.971Z,3.70
2023-07-14T20:14:47.997Z,3.55
2023-07-14T20:19:49.459Z,3.58
2023-07-14T20:24:51.275Z,3.53
2023-07-14T20:29:53.540Z,3.67
2023-07-14T20:35:01.475Z,4.00
2023-07-14T20:40:03.541Z,3.70
2023-07-14T20:45:13.856Z,3.95
2023-07-14T20:50:16.669Z,4.07
2023-07-14T20:55:28.484Z,3.65
2023-07-14T21:05:31.459Z,4.53
2023-07-14T21:10:32.944Z,4.25
2023-07-14T21:15:34.674Z,4.13
2023-07-14T21:25:37.543Z,3.83
2023-07-14T21:30:39.025Z,3.70
2023-07-14T21:35:40.500Z,3.85
2023-07-14T21:40:43.567Z,3.25
2023-07-14T21:45:46.642Z,3.20
2023-07-14T21:50:50.878Z,3.25
2023-07-14T21:55:52.358Z,3.17
2023-07-14T22:00:54.150Z,3.13
2023-07-14T22:10:59.056Z,2.70
2023-07-14T22:16:02.603Z,3.10
2023-07-14T22:21:17.530Z,3.00
2023-07-14T22:26:22.744Z,2.47
2023-07-14T22:31:27.104Z,2.38
2023-07-14T22:36:30.281Z,2.50
2023-07-14T22:41:37.320Z,2.50
2023-07-14T22:46:38.870Z,2.42
2023-07-14T22:51:42.241Z,2.35
2023-07-14T22:56:43.791Z,2.33
2023-07-14T23:01:45.294Z,2.65
2023-07-14T23:06:46.766Z,2.33
2023-07-14T23:11:48.453Z,2.38
2023-07-14T23:16:50.839Z,2.13
2023-07-14T23:21:52.320Z,2.60
2023-07-14T23:26:55.237Z,2.55
2023-07-14T23:31:56.840Z,2.10
2023-07-14T23:36:58.477Z,2.60
2023-07-14T23:41:59.981Z,2.10
2023-07-14T23:47:01.801Z,2.53
2023-07-14T23:52:06.078Z,2.60
2023-07-14T23:57:10.092Z,2.35
